TUPJ/RAD METAR and TAF weather

Enter ICAO airport designator
Station Type Date Time Source
TUPJ METAR 2020/02/19 11:00 UTC NOAA

TUPJ 191100Z 06011KT 10SM VCSH SCT019 25/20 A3007 RMK Q1018 VIS16KM VCSH-S


Station Type Date Time Source
TUPJ Decoded METAR 2020/02/19 11:00 UTC NOAA

Beef Island, Tortola, British Virgin Islands (TUPJ) 18-27N 064-32W
Feb 19, 2020 - 06:00 AM EST / 2020.02.19 1100 UTC
Wind: from the ENE (060 degrees) at 13 MPH (11 KT):0
Visibility: 10 mile(s):0
Sky conditions: partly cloudy
Weather: showers in the vicinity
Temperature: 77 F (25 C)
Dew Point: 68 F (20 C)
Relative Humidity: 73%
Pressure (altimeter): 30.07 in. Hg (1018 hPa)
ob: TUPJ 191100Z 06011KT 10SM VCSH SCT019 25/20 A3007 RMK Q1018 VIS16KM VCSH-S
cycle: 11

Station Type Date Time Source
TUPJ TAF 2020/02/19 12:06 UTC NOAA

TAF TUPJ 191100Z 1912/2012 09013KT 9999 SCT020 PROB30
TEMPO 1912/2020 SHRA

Example: see airport list